Time;durP1;ratioP1;P1;durP2;ratioP2;P2;SDS_P1;SDS_P2;PMS_P1;PMS_P2;Temp;Humidity;BMP_temperature;BMP_pressure;BME280_temperature;BME280_humidity;BME280_pressure;Samples;Min_cycle;Max_cycle;Signal;HPM_P1;HPM_P2
2021/08/30 00:02:23;;;;;;;22.97;20.60;;;;;;;18.09;77.47;101439.06;5058306;28;20182;-73
2021/08/30 00:04:48;;;;;;;23.73;21.30;;;;;;;18.03;77.69;101443.53;5057911;28;20204;-73
2021/08/30 00:07:13;;;;;;;23.43;21.03;;;;;;;17.84;78.70;101441.88;5057965;28;20615;-73
2021/08/30 00:09:40;;;;;;;23.30;20.90;;;;;;;18.12;77.19;101441.66;5058421;28;20162;-73
2021/08/30 00:12:05;;;;;;;25.33;22.63;;;;;;;17.65;79.03;101440.31;5057904;28;20269;-73
2021/08/30 00:17:52;;;;;;;27.50;22.60;;;;;;;17.96;78.28;101443.59;5057768;28;20443;-73
2021/08/30 00:20:20;;;;;;;23.83;21.43;;;;;;;17.71;78.73;101445.56;5057830;28;20416;-73
2021/08/30 00:22:46;;;;;;;25.17;22.43;;;;;;;17.70;80.12;101446.44;5058171;28;20165;-71
2021/08/30 00:25:11;;;;;;;29.27;26.10;;;;;;;17.85;78.83;101445.44;5057638;28;20506;-71
2021/08/30 00:27:37;;;;;;;25.13;22.50;;;;;;;18.01;78.19;101438.28;5056976;28;20495;-70
2021/08/30 00:30:04;;;;;;;26.97;22.90;;;;;;;17.78;79.49;101435.78;5057603;28;20218;-68
2021/08/30 00:32:29;;;;;;;24.37;21.70;;;;;;;17.99;78.22;101433.00;5057669;28;20272;-69
2021/08/30 00:34:55;;;;;;;24.77;21.33;;;;;;;17.71;79.35;101436.75;5061591;28;20557;-70
2021/08/30 00:37:20;;;;;;;28.53;23.20;;;;;;;17.87;78.77;101430.44;5061690;28;20161;-70
2021/08/30 00:39:46;;;;;;;23.77;21.27;;;;;;;17.66;79.82;101436.81;5061699;28;20178;-69
2021/08/30 00:42:12;;;;;;;25.10;22.40;;;;;;;17.88;78.84;101442.75;5044513;28;20161;-69
2021/08/30 00:44:38;;;;;;;27.30;22.67;;;;;;;17.88;78.99;101428.69;5061310;28;20416;-69
2021/08/30 00:47:03;;;;;;;30.73;25.07;;;;;;;17.66;79.57;101434.16;5061617;28;20411;-70
2021/08/30 00:49:29;;;;;;;32.60;29.13;;;;;;;17.68;79.71;101435.91;5061816;28;20223;-69
2021/08/30 00:51:55;;;;;;;35.90;30.60;;;;;;;17.67;79.77;101434.16;5061463;28;20262;-69
2021/08/30 00:54:21;;;;;;;46.90;37.00;;;;;;;17.43;80.75;101440.50;5060386;28;20243;-70
2021/08/30 00:56:47;;;;;;;54.03;42.60;;;;;;;17.47;80.24;101441.34;5061666;28;20440;-70
2021/08/30 00:59:13;;;;;;;27.43;22.00;;;;;;;17.47;80.48;101444.84;5061082;28;20515;-70
2021/08/30 01:01:38;;;;;;;25.87;23.07;;;;;;;17.52;80.05;101439.53;5060495;28;20654;-70
2021/08/30 01:04:11;;;;;;;30.07;25.10;;;;;;;17.82;78.99;101437.56;5061611;28;20165;-71
2021/08/30 01:07:17;;;;;;;25.63;22.90;;;;;;;18.04;77.80;101440.00;5061144;28;20260;-70
2021/08/30 01:09:50;;;;;;;28.20;25.20;;;;;;;17.65;79.09;101446.47;5049372;28;20415;-71
2021/08/30 01:12:26;;;;;;;27.63;24.63;;;;;;;17.65;79.63;101454.38;5061068;28;20427;-71
2021/08/30 01:15:02;;;;;;;26.23;23.50;;;;;;;17.58;80.08;101449.19;5060135;28;20431;-70
2021/08/30 01:17:32;;;;;;;27.63;24.70;;;;;;;17.92;78.75;101448.91;5060107;28;20411;-70
2021/08/30 01:20:05;;;;;;;25.57;22.87;;;;;;;17.75;78.86;101457.81;5060848;28;20712;-70
2021/08/30 01:22:32;;;;;;;26.03;22.53;;;;;;;17.92;77.89;101451.56;5060152;28;20453;-72
2021/08/30 01:25:00;;;;;;;25.07;21.47;;;;;;;17.96;77.76;101455.91;5060601;28;20419;-72
2021/08/30 01:27:27;;;;;;;24.37;21.77;;;;;;;17.54;79.60;101465.91;5060114;28;20416;-71
2021/08/30 01:30:00;;;;;;;24.13;21.43;;;;;;;18.00;78.01;101461.13;5059866;28;20459;-71
2021/08/30 01:32:46;;;;;;;26.17;23.27;;;;;;;18.07;77.25;101455.81;5059922;28;20412;-71
2021/08/30 01:35:18;;;;;;;25.50;22.90;;;;;;;17.89;78.11;101459.44;5059690;28;20412;-73
2021/08/30 01:37:47;;;;;;;24.97;22.37;;;;;;;18.03;77.52;101454.94;5060551;28;20415;-72
2021/08/30 01:40:14;;;;;;;25.33;22.70;;;;;;;17.93;77.86;101458.59;5060720;28;20502;-73
2021/08/30 01:42:41;;;;;;;25.33;21.50;;;;;;;17.69;78.83;101460.50;5059853;28;20500;-71
2021/08/30 01:45:10;;;;;;;24.20;21.73;;;;;;;17.58;79.15;101457.09;5058233;28;20721;-71
2021/08/30 01:47:35;;;;;;;23.97;21.57;;;;;;;17.94;77.81;101448.00;5060757;28;20416;-71
2021/08/30 01:50:03;;;;;;;24.80;22.20;;;;;;;17.81;78.22;101452.47;5059692;28;20419;-71
2021/08/30 01:52:30;;;;;;;23.90;21.33;;;;;;;17.87;78.42;101455.97;5060364;28;20543;-73
2021/08/30 01:54:56;;;;;;;24.20;21.70;;;;;;;17.84;77.98;101451.59;5060069;28;20462;-72
2021/08/30 01:57:23;;;;;;;23.00;20.53;;;;;;;17.74;78.16;101461.34;5059581;28;20408;-71
2021/08/30 02:02:35;;;;;;;25.93;21.90;;;;;;;17.87;77.93;101450.69;5059466;28;20431;-71
2021/08/30 02:05:00;;;;;;;25.53;22.83;;;;;;;17.94;77.61;101450.66;5059259;28;20412;-72
2021/08/30 02:07:25;;;;;;;26.80;22.43;;;;;;;17.88;78.29;101452.44;5060040;28;20416;-71
2021/08/30 02:09:51;;;;;;;25.73;23.00;;;;;;;17.69;78.65;101452.59;5059998;28;20177;-71
2021/08/30 02:12:16;;;;;;;26.23;23.43;;;;;;;17.52;79.24;101447.44;5060486;28;20577;-72
2021/08/30 02:14:41;;;;;;;26.30;22.97;;;;;;;17.43;79.35;101452.81;5059729;28;20318;-72
2021/08/30 02:17:09;;;;;;;28.50;22.77;;;;;;;17.26;80.30;101451.16;5059901;28;20205;-72
2021/08/30 02:19:41;;;;;;;24.90;22.27;;;;;;;17.80;78.44;101440.19;5059584;28;20223;-72
2021/08/30 02:22:13;;;;;;;28.37;23.37;;;;;;;17.47;79.51;101452.75;5059197;28;20408;-72
2021/08/30 02:24:42;;;;;;;27.37;23.30;;;;;;;17.60;79.18;101450.03;5058840;28;20416;-71
2021/08/30 02:27:11;;;;;;;26.17;22.83;;;;;;;17.50;79.51;101451.88;5058980;28;20469;-72
2021/08/30 02:29:49;;;;;;;27.27;23.67;;;;;;;17.71;78.92;101442.91;5059391;28;20803;-72
2021/08/30 02:32:15;;;;;;;27.30;24.40;;;;;;;17.96;77.52;101448.00;5059176;28;20793;-71
2021/08/30 02:34:46;;;;;;;27.40;22.30;;;;;;;17.19;80.70;101451.22;5059314;28;20467;-72
2021/08/30 02:37:11;;;;;;;27.17;22.77;;;;;;;17.42;79.94;101449.28;5059500;28;20444;-72
2021/08/30 02:39:37;;;;;;;26.43;23.20;;;;;;;17.57;79.46;101442.16;5059035;28;20675;-71
2021/08/30 02:42:04;;;;;;;24.50;22.00;;;;;;;17.68;78.88;101453.47;5059887;28;20173;-72
2021/08/30 02:44:30;;;;;;;25.47;22.80;;;;;;;17.88;78.00;101448.03;5058643;28;20420;-72
2021/08/30 02:46:55;;;;;;;24.77;22.07;;;;;;;17.46;79.59;101445.75;5058621;28;20476;-71
2021/08/30 02:49:20;;;;;;;27.13;22.77;;;;;;;17.87;78.19;101441.00;5059218;28;20193;-71
2021/08/30 02:51:46;;;;;;;24.47;21.83;;;;;;;17.45;79.21;101449.25;5059393;28;20170;-71
2021/08/30 02:54:12;;;;;;;25.67;22.90;;;;;;;17.56;79.16;101441.25;5058445;28;20277;-71
2021/08/30 02:56:38;;;;;;;26.13;23.27;;;;;;;17.74;78.90;101439.34;5058731;28;20170;-71
2021/08/30 02:59:04;;;;;;;27.07;20.73;;;;;;;17.78;78.79;101438.44;5059237;28;20439;-71
2021/08/30 03:01:30;;;;;;;25.13;22.43;;;;;;;17.61;79.11;101443.88;5058443;28;20552;-71
2021/08/30 03:03:56;;;;;;;27.93;22.97;;;;;;;17.42;79.66;101449.28;5058611;28;20561;-71
2021/08/30 03:06:22;;;;;;;25.67;22.93;;;;;;;17.56;79.04;101445.66;5058923;28;20416;-71
2021/08/30 03:08:48;;;;;;;29.37;24.77;;;;;;;17.54;79.57;101442.19;5058841;28;20217;-70
2021/08/30 03:11:14;;;;;;;27.03;22.27;;;;;;;17.57;79.38;101436.88;5059513;28;20483;-71
2021/08/30 03:13:41;;;;;;;26.80;24.00;;;;;;;17.63;79.05;101436.81;5057964;28;20225;-71
2021/08/30 03:16:06;;;;;;;24.97;21.83;;;;;;;17.94;77.62;101433.94;5058859;28;20423;-71
2021/08/30 03:18:32;;;;;;;26.40;23.60;;;;;;;17.73;78.58;101438.50;5059240;28;20408;-71
2021/08/30 03:20:58;;;;;;;27.43;24.53;;;;;;;17.66;79.06;101437.66;5058052;28;20224;-71
2021/08/30 03:23:24;;;;;;;29.13;24.03;;;;;;;18.07;77.40;101438.19;5057841;28;20411;-71
2021/08/30 03:25:50;;;;;;;25.47;22.73;;;;;;;18.06;76.99;101440.84;5063432;28;20547;-71
2021/08/30 03:28:16;;;;;;;27.03;22.97;;;;;;;17.94;77.10;101444.47;5058282;28;20408;-71
2021/08/30 03:30:41;;;;;;;25.00;22.20;;;;;;;17.81;77.49;101441.94;5057990;28;20225;-71
2021/08/30 03:33:07;;;;;;;28.43;24.90;;;;;;;17.85;77.56;101446.28;5058950;28;20232;-72
2021/08/30 03:35:34;;;;;;;27.13;24.10;;;;;;;17.94;77.61;101436.56;5057855;28;20216;-71
2021/08/30 03:38:00;;;;;;;28.07;23.67;;;;;;;17.63;78.40;101450.00;5057739;28;20849;-71
2021/08/30 03:40:27;;;;;;;30.80;25.00;;;;;;;17.65;78.55;101450.88;5058095;28;20181;-70
2021/08/30 03:42:53;;;;;;;29.57;23.60;;;;;;;17.78;78.24;101441.06;5058500;28;20423;-71
2021/08/30 03:45:19;;;;;;;27.27;23.50;;;;;;;17.60;79.09;101444.75;5057589;28;20416;-71
2021/08/30 03:47:44;;;;;;;28.30;24.70;;;;;;;17.76;78.19;101449.00;5058667;28;20409;-70
2021/08/30 03:50:13;;;;;;;29.33;23.97;;;;;;;17.68;79.01;101448.19;5057558;28;20173;-71
2021/08/30 03:52:40;;;;;;;26.67;23.87;;;;;;;17.96;77.17;101446.22;5040947;28;20173;-71
2021/08/30 03:55:08;;;;;;;27.50;24.80;;;;;;;18.01;77.10;101446.19;5058546;28;20405;-71
2021/08/30 03:57:35;;;;;;;27.60;24.70;;;;;;;17.79;78.14;101448.09;5058070;28;20507;-70
2021/08/30 04:00:01;;;;;;;26.80;23.67;;;;;;;17.74;78.30;101442.00;5058055;28;20427;-71
2021/08/30 04:02:28;;;;;;;25.33;22.17;;;;;;;17.24;80.34;101452.03;5057690;28;20841;-71
2021/08/30 04:04:54;;;;;;;28.10;24.30;;;;;;;17.40;80.04;101450.19;5057207;28;20440;-70
2021/08/30 04:07:20;;;;;;;34.10;24.13;;;;;;;17.54;79.57;101453.59;5056827;28;20481;-71
2021/08/30 04:09:45;;;;;;;28.30;24.37;;;;;;;17.24;80.76;101457.31;5057492;28;20530;-71
2021/08/30 04:12:11;;;;;;;30.43;25.37;;;;;;;17.45;79.85;101457.16;5057976;28;20448;-71
2021/08/30 04:14:40;;;;;;;27.77;24.83;;;;;;;17.46;79.84;101468.59;5057088;28;20204;-71
2021/08/30 04:17:05;;;;;;;27.77;24.87;;;;;;;17.27;80.35;101465.22;5058501;28;20415;-71
2021/08/30 04:19:31;;;;;;;26.93;23.90;;;;;;;17.53;79.69;101467.66;5057874;28;20412;-70
2021/08/30 04:21:56;;;;;;;27.43;23.67;;;;;;;17.62;79.31;101461.44;5058021;28;20192;-71
2021/08/30 04:24:21;;;;;;;27.90;24.17;;;;;;;17.67;78.91;101467.53;5058421;28;20170;-70
2021/08/30 04:26:46;;;;;;;26.67;23.83;;;;;;;17.70;78.75;101469.28;5057998;28;20192;-70
2021/08/30 04:29:12;;;;;;;29.53;24.57;;;;;;;17.91;78.48;101462.94;5057851;28;20300;-71
2021/08/30 04:31:37;;;;;;;27.53;24.63;;;;;;;18.03;77.07;101465.50;5058084;28;20548;-73
2021/08/30 04:34:03;;;;;;;27.17;24.27;;;;;;;17.60;78.63;101469.38;5057615;28;20242;-72
2021/08/30 04:36:28;;;;;;;24.87;22.17;;;;;;;17.41;79.84;101473.88;5057948;28;20233;-72
2021/08/30 04:38:53;;;;;;;26.50;21.83;;;;;;;17.44;79.59;101478.25;5058157;28;20304;-71
2021/08/30 04:41:19;;;;;;;25.97;23.20;;;;;;;17.21;80.36;101478.41;5057168;28;20173;-72
2021/08/30 04:43:45;;;;;;;26.63;22.60;;;;;;;17.59;79.40;101478.16;5057530;28;20200;-72
2021/08/30 04:46:11;;;;;;;25.20;22.23;;;;;;;17.54;78.99;101487.00;5058314;28;20219;-72
2021/08/30 04:48:36;;;;;;;25.67;22.50;;;;;;;17.60;79.12;101481.66;5057590;28;20420;-71
2021/08/30 04:51:02;;;;;;;27.00;24.13;;;;;;;17.78;78.10;101488.53;5057781;28;20220;-70
2021/08/30 04:53:27;;;;;;;27.73;23.40;;;;;;;17.92;77.71;101497.25;5057836;28;20232;-71
2021/08/30 04:55:53;;;;;;;26.00;21.60;;;;;;;17.64;78.76;101496.56;5057718;28;20570;-71
2021/08/30 04:58:18;;;;;;;25.43;22.73;;;;;;;17.85;78.23;101492.91;5057581;28;20208;-71
2021/08/30 05:00:43;;;;;;;25.07;22.37;;;;;;;18.20;76.70;101488.19;5057858;28;20198;-71
2021/08/30 05:03:08;;;;;;;24.70;22.10;;;;;;;17.95;77.07;101497.22;5057389;28;20602;-71
2021/08/30 05:05:34;;;;;;;25.03;22.10;;;;;;;17.64;78.64;101497.47;5057878;28;20422;-71
2021/08/30 05:07:59;;;;;;;37.23;24.50;;;;;;;17.53;79.43;101495.78;5057716;28;20170;-70
2021/08/30 05:10:24;;;;;;;26.50;22.23;;;;;;;17.78;78.11;101499.09;5057438;28;20177;-71
2021/08/30 05:12:50;;;;;;;27.50;24.53;;;;;;;17.64;78.47;101500.09;5057356;28;20165;-71
2021/08/30 05:15:15;;;;;;;28.33;22.80;;;;;;;17.62;78.54;101499.22;5057292;28;20174;-71
2021/08/30 05:17:40;;;;;;;25.30;22.47;;;;;;;17.56;78.70;101498.41;5057426;28;20177;-71
2021/08/30 05:20:06;;;;;;;27.70;22.47;;;;;;;18.09;77.07;101483.03;5059669;28;20243;-71
2021/08/30 05:22:31;;;;;;;26.27;22.33;;;;;;;17.85;77.51;101498.19;5061531;28;20165;-71
2021/08/30 05:24:57;;;;;;;30.10;23.90;;;;;;;17.88;77.99;101489.38;5060787;28;20224;-70
2021/08/30 05:27:22;;;;;;;26.77;22.70;;;;;;;17.98;77.75;101491.94;5060902;28;20269;-71
2021/08/30 05:29:49;;;;;;;23.10;20.50;;;;;;;18.37;75.68;101495.97;5060837;28;20218;-71
2021/08/30 05:32:14;;;;;;;26.53;22.10;;;;;;;18.36;75.21;101497.75;5060725;28;20499;-71
2021/08/30 05:34:39;;;;;;;26.07;22.50;;;;;;;17.98;76.60;101506.88;5060853;28;20554;-71
2021/08/30 05:37:04;;;;;;;24.40;21.90;;;;;;;18.07;76.53;101505.94;5060514;28;20216;-70
2021/08/30 05:39:30;;;;;;;23.03;20.67;;;;;;;18.26;76.11;101501.34;5060714;28;20181;-71
2021/08/30 05:41:55;;;;;;;22.27;19.93;;;;;;;18.30;75.85;101503.06;5060911;28;20166;-70
2021/08/30 05:44:20;;;;;;;23.20;20.10;;;;;;;17.98;77.06;101509.50;5060335;28;20181;-71
2021/08/30 05:46:46;;;;;;;21.43;18.93;;;;;;;18.14;76.91;101505.88;5060351;28;20316;-71
2021/08/30 05:49:11;;;;;;;20.53;18.20;;;;;;;18.34;75.67;101505.66;5060966;28;20189;-71
2021/08/30 05:51:36;;;;;;;21.47;19.20;;;;;;;18.63;74.96;101506.22;5060180;28;20311;-71
2021/08/30 05:54:02;;;;;;;21.93;18.67;;;;;;;18.40;75.40;101507.38;5060032;28;20267;-72
2021/08/30 05:56:28;;;;;;;23.30;18.03;;;;;;;18.93;72.70;101501.47;5060641;28;20442;-72
2021/08/30 05:58:56;;;;;;;19.50;17.60;;;;;;;19.35;71.45;101500.03;5060291;28;20174;-70
2021/08/30 06:01:22;;;;;;;18.50;16.70;;;;;;;19.78;69.87;101502.88;5060131;28;20455;-71
2021/08/30 06:03:47;;;;;;;18.37;16.57;;;;;;;19.37;71.03;101502.63;5060308;28;20416;-71
2021/08/30 06:06:12;;;;;;;18.80;16.90;;;;;;;19.33;71.94;101504.44;5060022;28;20223;-71
2021/08/30 06:08:38;;;;;;;23.27;17.40;;;;;;;20.27;68.33;101503.81;5060061;28;20185;-71
2021/08/30 06:11:03;;;;;;;18.30;16.60;;;;;;;20.38;68.24;101498.31;5060393;28;20200;-72
2021/08/30 06:13:28;;;;;;;17.73;15.83;;;;;;;20.16;68.36;101501.38;5059833;28;20236;-72
2021/08/30 06:15:54;;;;;;;19.13;16.20;;;;;;;19.70;69.91;101505.69;5059854;28;20243;-72
2021/08/30 06:18:19;;;;;;;18.73;16.80;;;;;;;19.44;70.71;101501.63;5060412;28;20223;-71
2021/08/30 06:20:45;;;;;;;16.30;14.70;;;;;;;18.83;72.76;101509.53;5059881;28;20467;-71
2021/08/30 06:23:10;;;;;;;16.53;14.80;;;;;;;19.10;72.00;101502.13;5059800;28;20169;-71
2021/08/30 06:25:35;;;;;;;17.03;15.33;;;;;;;19.43;71.07;101499.91;5060382;28;20553;-71
2021/08/30 06:28:01;;;;;;;15.60;14.10;;;;;;;19.63;69.56;101493.44;5059813;28;20562;-71
2021/08/30 06:30:26;;;;;;;16.93;15.13;;;;;;;19.97;69.17;101498.19;5058920;28;20591;-71
2021/08/30 06:32:52;;;;;;;15.60;14.00;;;;;;;19.57;69.58;101498.84;5059898;28;20180;-71
2021/08/30 06:35:17;;;;;;;15.63;14.03;;;;;;;19.66;69.24;101499.56;5059533;28;20219;-71
2021/08/30 06:37:43;;;;;;;16.03;14.50;;;;;;;19.46;70.57;101499.88;5058912;28;20223;-72
2021/08/30 06:40:09;;;;;;;18.33;14.63;;;;;;;20.10;68.47;101501.50;5059841;28;20166;-72
2021/08/30 06:42:35;;;;;;;16.10;13.93;;;;;;;19.28;70.55;101505.41;5059419;28;20170;-71
2021/08/30 06:45:00;;;;;;;16.50;14.90;;;;;;;19.64;70.19;101513.69;5059327;28;20870;-72
2021/08/30 06:47:27;;;;;;;17.27;15.43;;;;;;;20.01;68.51;101505.16;5059937;28;20170;-72
2021/08/30 06:49:52;;;;;;;18.90;15.10;;;;;;;19.58;70.20;101512.03;5059167;28;20176;-72
2021/08/30 06:52:17;;;;;;;20.47;15.90;;;;;;;19.67;70.03;101500.41;5059425;28;20499;-73
2021/08/30 06:54:43;;;;;;;17.00;15.20;;;;;;;19.15;71.81;101505.59;5059442;28;20197;-71
2021/08/30 06:57:08;;;;;;;17.43;14.60;;;;;;;19.21;71.25;101501.97;5059305;28;20178;-72
2021/08/30 06:59:33;;;;;;;15.50;13.93;;;;;;;19.49;70.60;101510.38;5059124;28;20440;-72
2021/08/30 07:01:59;;;;;;;15.70;14.20;;;;;;;19.30;70.96;101509.78;5059523;28;20213;-72
2021/08/30 07:04:24;;;;;;;15.60;13.80;;;;;;;19.72;69.51;101503.00;5059015;28;20211;-73
2021/08/30 07:06:49;;;;;;;15.53;13.93;;;;;;;20.22;67.84;101503.06;5059115;28;20165;-72
2021/08/30 07:09:15;;;;;;;15.57;14.07;;;;;;;21.34;64.32;101502.53;5059635;28;20457;-72
2021/08/30 07:11:40;;;;;;;15.07;13.53;;;;;;;21.86;62.27;101501.28;5058966;28;20174;-72
2021/08/30 07:14:05;;;;;;;13.73;12.30;;;;;;;23.10;58.82;101495.22;5058689;28;20216;-72
2021/08/30 07:16:31;;;;;;;14.23;12.20;;;;;;;23.55;57.00;101497.38;5059484;28;20512;-72
2021/08/30 07:18:56;;;;;;;13.40;12.00;;;;;;;24.88;53.14;101500.75;5058896;28;20177;-71
2021/08/30 07:21:23;;;;;;;11.60;10.40;;;;;;;26.68;47.40;101486.16;5058711;28;20264;-71
2021/08/30 07:23:48;;;;;;;9.90;9.10;;;;;;;26.60;47.46;101490.09;5059199;28;20176;-72
2021/08/30 07:26:13;;;;;;;11.53;10.43;;;;;;;26.20;48.71;101490.09;5058754;28;20412;-72
2021/08/30 07:28:39;;;;;;;11.87;10.77;;;;;;;27.41;45.40;101490.78;5058832;28;20174;-73
2021/08/30 07:31:04;;;;;;;11.07;10.10;;;;;;;25.99;48.85;101507.91;5059124;28;20271;-73
2021/08/30 07:33:29;;;;;;;12.87;11.13;;;;;;;27.08;45.83;101493.28;5056338;28;20490;-70
2021/08/30 07:35:55;;;;;;;10.13;9.20;;;;;;;26.07;47.21;101499.59;5058368;28;20249;-70
2021/08/30 07:38:20;;;;;;;11.03;10.00;;;;;;;24.45;52.33;101509.44;5058854;28;20174;-71
2021/08/30 07:40:46;;;;;;;9.17;8.47;;;;;;;21.69;56.77;101517.66;5057644;28;20208;-71
2021/08/30 07:43:11;;;;;;;8.70;7.80;;;;;;;22.71;54.48;101511.47;5058220;28;20162;-71
2021/08/30 07:45:37;;;;;;;10.40;9.33;;;;;;;23.83;52.20;101515.09;5058553;28;20448;-70
2021/08/30 07:48:03;;;;;;;9.00;8.27;;;;;;;22.91;53.19;101517.97;5041123;28;20447;-74
2021/08/30 07:50:28;;;;;;;9.13;8.33;;;;;;;22.44;55.70;101524.59;5058384;28;20450;-72
2021/08/30 07:52:54;;;;;;;11.33;8.70;;;;;;;21.40;58.15;101528.06;5062459;28;20165;-72
2021/08/30 07:55:19;;;;;;;9.90;9.10;;;;;;;22.27;56.13;101529.47;5059446;28;20181;-71
2021/08/30 07:57:44;;;;;;;10.27;9.20;;;;;;;21.47;58.60;101527.00;5058109;28;20547;-71
2021/08/30 08:00:13;;;;;;;10.63;9.73;;;;;;;21.58;58.86;101526.78;5058356;28;20172;-71
2021/08/30 08:02:39;;;;;;;10.83;9.83;;;;;;;21.50;58.82;101516.28;5057837;28;20186;-71
2021/08/30 08:05:05;;;;;;;10.40;9.50;;;;;;;21.77;58.38;101533.41;5058022;28;20507;-70
2021/08/30 08:07:31;;;;;;;10.23;9.33;;;;;;;21.02;60.92;101522.69;5058195;28;20169;-70
2021/08/30 08:09:56;;;;;;;11.10;10.10;;;;;;;21.27;59.96;101530.09;5057836;28;20550;-70
2021/08/30 08:12:21;;;;;;;10.50;9.50;;;;;;;21.08;59.98;101534.94;5057972;28;20180;-71
2021/08/30 08:14:46;;;;;;;10.97;8.93;;;;;;;20.72;61.05;101534.81;5057977;28;20181;-69
2021/08/30 08:17:12;;;;;;;11.87;10.17;;;;;;;20.94;59.83;101528.13;5057833;28;20179;-72
2021/08/30 08:19:37;;;;;;;10.30;9.40;;;;;;;20.60;61.50;101538.53;5057753;28;20169;-69
2021/08/30 08:22:03;;;;;;;9.77;8.87;;;;;;;19.71;64.11;101543.56;5058162;28;20391;-69
2021/08/30 08:24:29;;;;;;;10.10;9.00;;;;;;;20.50;62.03;101549.31;5057000;28;20197;-70
2021/08/30 08:26:55;;;;;;;11.33;9.87;;;;;;;21.09;60.18;101540.19;5057646;28;20553;-70
2021/08/30 08:29:21;;;;;;;10.20;9.30;;;;;;;21.09;59.48;101540.19;5057759;28;20275;-70
2021/08/30 08:31:47;;;;;;;10.20;8.60;;;;;;;21.42;58.39;101535.06;5057622;28;20404;-70
2021/08/30 08:34:12;;;;;;;11.80;10.70;;;;;;;21.09;58.59;101539.34;5057631;28;20968;-70
2021/08/30 08:36:39;;;;;;;9.53;8.53;;;;;;;21.40;57.99;101533.34;5057000;28;20441;-69
2021/08/30 08:39:05;;;;;;;9.60;8.60;;;;;;;21.05;59.87;101535.88;5057687;28;20170;-69
2021/08/30 08:41:30;;;;;;;9.63;8.73;;;;;;;21.33;58.35;101533.47;5057714;28;20902;-69
2021/08/30 08:43:56;;;;;;;9.37;8.37;;;;;;;20.00;60.61;101537.84;5057370;28;20507;-71
2021/08/30 08:46:22;;;;;;;10.00;8.97;;;;;;;21.10;58.90;101544.59;5057642;28;20177;-72
2021/08/30 08:48:48;;;;;;;8.97;8.10;;;;;;;20.92;58.97;101539.69;5057913;28;20168;-71
2021/08/30 08:51:15;;;;;;;8.80;8.00;;;;;;;20.07;60.58;101536.84;5057544;28;20412;-72
2021/08/30 08:53:42;;;;;;;8.00;7.20;;;;;;;19.77;61.54;101551.41;5057443;28;20236;-72
2021/08/30 08:56:12;;;;;;;9.40;8.50;;;;;;;19.79;61.75;101555.78;5061772;28;20670;-70
2021/08/30 08:58:37;;;;;;;9.77;8.97;;;;;;;20.63;60.02;101552.56;5061246;28;20439;-72
2021/08/30 09:01:11;;;;;;;9.73;8.77;;;;;;;19.97;62.06;101556.41;5061286;28;20860;-73
2021/08/30 09:03:43;;;;;;;8.97;8.07;;;;;;;19.54;63.17;101552.66;5061210;28;20200;-73
2021/08/30 09:06:08;;;;;;;9.73;8.70;;;;;;;20.57;60.10;101555.38;5061509;28;20407;-72
2021/08/30 09:08:39;;;;;;;10.30;7.97;;;;;;;19.92;61.42;101556.50;5061680;28;20660;-74
2021/08/30 09:11:14;;;;;;;9.27;8.47;;;;;;;20.05;60.64;101564.22;5060853;28;20174;-73
2021/08/30 09:14:11;;;;;;;9.80;8.47;;;;;;;19.75;61.35;101558.50;5060090;28;20509;-74
2021/08/30 09:16:37;;;;;;;9.03;8.13;;;;;;;19.34;62.13;101564.38;5057988;28;20424;-71
2021/08/30 09:19:04;;;;;;;9.80;8.90;;;;;;;19.53;61.49;101541.19;5060195;28;20419;-72
2021/08/30 09:21:30;;;;;;;9.70;8.80;;;;;;;19.94;60.39;101559.13;5060858;28;20227;-71
2021/08/30 09:23:55;;;;;;;8.63;7.83;;;;;;;19.54;60.70;101552.66;5060862;28;20424;-72
2021/08/30 09:26:21;;;;;;;9.87;8.20;;;;;;;20.11;60.24;101557.06;5061196;28;20184;-71
2021/08/30 09:28:55;;;;;;;8.70;7.90;;;;;;;19.27;60.42;101544.22;5060817;28;20215;-70
2021/08/30 09:31:21;;;;;;;9.87;8.60;;;;;;;19.26;61.73;101554.81;5060168;28;20235;-74
2021/08/30 09:33:52;;;;;;;8.17;7.37;;;;;;;19.64;61.09;101554.25;5061803;28;20459;-72
2021/08/30 09:36:20;;;;;;;9.57;8.67;;;;;;;20.01;59.82;101561.66;5060948;28;20165;-71
2021/08/30 09:38:54;;;;;;;9.83;8.73;;;;;;;20.21;59.21;101565.72;5061428;28;20439;-71
2021/08/30 09:41:19;;;;;;;9.30;8.23;;;;;;;20.13;59.28;101568.50;5060619;28;20424;-70
2021/08/30 09:43:45;;;;;;;8.30;7.50;;;;;;;19.97;59.84;101567.88;5060319;28;20453;-71
2021/08/30 09:46:10;;;;;;;10.20;8.37;;;;;;;19.63;60.19;101568.38;5061198;28;20459;-71
2021/08/30 09:48:36;;;;;;;8.30;7.47;;;;;;;18.94;62.71;101571.94;5060328;28;20219;-71
2021/08/30 09:51:03;;;;;;;8.53;7.80;;;;;;;19.17;62.09;101569.00;5060420;28;20161;-71
2021/08/30 09:53:31;;;;;;;13.23;8.40;;;;;;;19.67;61.02;101572.72;5060438;28;20236;-71
2021/08/30 09:55:57;;;;;;;9.17;8.33;;;;;;;20.08;60.16;101564.16;5060364;28;20424;-70
2021/08/30 09:58:27;;;;;;;10.10;9.13;;;;;;;19.52;61.91;101573.84;5060233;28;20508;-70
2021/08/30 10:00:53;;;;;;;8.70;7.90;;;;;;;19.50;61.76;101575.59;5060537;28;20504;-71
2021/08/30 10:03:18;;;;;;;10.77;9.87;;;;;;;19.38;62.75;101581.06;5060005;28;20458;-70
2021/08/30 10:05:44;;;;;;;8.63;7.93;;;;;;;18.84;63.70;101579.94;5058297;28;20444;-69
2021/08/30 10:08:10;;;;;;;11.27;8.57;;;;;;;19.99;60.88;101573.16;5059696;28;20179;-69
2021/08/30 10:10:35;;;;;;;9.43;8.30;;;;;;;20.47;60.04;101567.91;5059881;28;20173;-69
2021/08/30 10:13:01;;;;;;;9.40;8.43;;;;;;;19.64;61.44;101574.53;5059729;28;20170;-69
2021/08/30 10:15:27;;;;;;;12.17;7.87;;;;;;;19.73;61.54;101569.13;5059708;28;20184;-69
2021/08/30 10:17:53;;;;;;;9.50;8.70;;;;;;;19.77;61.81;101569.91;5059049;28;20169;-69
2021/08/30 10:20:22;;;;;;;9.13;8.00;;;;;;;19.76;61.79;101574.34;5042516;28;20516;-70
2021/08/30 10:23:05;;;;;;;9.40;8.50;;;;;;;19.06;64.20;101579.72;5060226;28;20415;-74
2021/08/30 10:25:32;;;;;;;11.53;9.57;;;;;;;19.79;62.04;101571.66;5059802;28;20424;-73
2021/08/30 10:27:59;;;;;;;10.63;9.30;;;;;;;20.58;59.69;101574.75;5059699;28;20443;-69
2021/08/30 10:30:26;;;;;;;10.43;9.40;;;;;;;20.46;59.92;101567.94;5059504;28;20956;-69
2021/08/30 10:32:57;;;;;;;11.67;8.30;;;;;;;20.07;60.36;101565.97;5058705;28;20426;-70
2021/08/30 10:35:25;;;;;;;10.07;8.97;;;;;;;20.58;60.21;101564.16;5059716;28;20461;-70
2021/08/30 10:37:54;;;;;;;8.93;8.03;;;;;;;20.74;58.74;101576.25;5059318;28;20833;-71
2021/08/30 10:40:20;;;;;;;12.00;8.00;;;;;;;20.09;60.59;101574.72;5059414;28;20830;-72
2021/08/30 10:42:57;;;;;;;9.10;8.03;;;;;;;20.44;60.12;101575.03;5059850;28;20434;-72
2021/08/30 10:45:36;;;;;;;10.83;9.83;;;;;;;20.54;59.63;101571.31;5059220;28;20431;-70
2021/08/30 10:48:07;;;;;;;10.30;9.40;;;;;;;20.14;61.15;101578.19;5059248;28;20463;-71
2021/08/30 10:50:38;;;;;;;9.97;8.90;;;;;;;20.22;60.57;101571.91;5059227;28;20502;-71
2021/08/30 10:53:20;;;;;;;9.90;9.00;;;;;;;20.40;60.60;101578.63;5059029;28;20424;-73
2021/08/30 10:55:48;;;;;;;9.47;8.57;;;;;;;19.99;61.30;101579.31;5059252;28;20424;-75
2021/08/30 10:58:17;;;;;;;17.13;8.93;;;;;;;20.05;61.03;101580.13;5059186;28;20466;-70
2021/08/30 11:00:45;;;;;;;10.60;8.53;;;;;;;20.81;60.13;101580.53;5058979;28;20448;-72
2021/08/30 11:03:11;;;;;;;9.33;8.40;;;;;;;21.09;59.05;101568.50;5058845;28;20427;-71
2021/08/30 11:05:36;;;;;;;10.40;8.27;;;;;;;20.80;58.84;101576.13;5059198;28;20876;-71
2021/08/30 11:08:03;;;;;;;9.13;7.83;;;;;;;22.23;55.32;101570.31;5058925;28;20262;-69
2021/08/30 11:10:29;;;;;;;8.80;8.00;;;;;;;21.37;57.13;101576.72;5057931;28;20205;-70
2021/08/30 11:12:57;;;;;;;7.90;7.30;;;;;;;22.25;54.84;101571.16;5059007;28;20751;-69
2021/08/30 11:15:29;;;;;;;8.10;7.20;;;;;;;21.29;57.03;101576.03;5058522;28;20432;-69
2021/08/30 11:17:58;;;;;;;8.80;8.10;;;;;;;20.99;58.35;101589.03;5058461;28;20733;-70
2021/08/30 11:20:23;;;;;;;8.00;7.30;;;;;;;21.47;57.42;101574.75;5058652;28;20519;-72